Eau Claire, WI

8:46 PM CDT on September 21, 2014 (GMT -0500)
Memorial High area | Change Station
CLOSE
Current Station
Personal Weather Station
Location: Eau Claire, WI
Elevation: 880 ft
Nearby Weather Stations

Elev 880 ft 44.80 °N, 91.48 °W | Updated 13 seconds ago

Clear
Clear
52.7 °F
Feels Like 52.7 °F
N
0.0
Wind Variable Wind from North
Gusts 0.0 mph

Today
High -- | Low -- °F
--% Chance of Precip.
Yesterday
High -- | Low -- °F
Precip. -- in
6:51 AM 7:05 PM
Waning Crescent, 4% visible
Pressure 30.16 in
Visibility 10.0 miles
Clouds Clear
Dew Point 46 °F
Humidity 79%
Rainfall 0.00 in
Snow Depth Not available.
UV 0 out of 12
Pollen 2.10 out of 12
Air Quality Not available.
Flu Activity Not available.
METAR KEAU 220056Z 00000KT 10SM CLR 12/07 A3015 RMK AO2 SLP213 T01220072

More Conditions Fewer Conditions

Pressure 30.16 in
Visibility 10.0 miles
Clouds Clear
Dew Point 46 °F
Humidity 79%
Rainfall 0.00 in
Snow Depth Not available.
UV 0 out of 12
Pollen 2.10 out of 12
Air Quality Not available.
Flu Activity Not available.
METAR KEAU 220056Z 00000KT 10SM CLR 12/07 A3015 RMK AO2 SLP213 T01220072

More Conditions Fewer Conditions

10-Day Weather Forecast

Almanac

Astronomy

Sep. 21, 2014 Rise Set
Actual Time 6:51 AM CDT 7:05 PM CDT
Civil Twilight 6:22 AM CDT 7:34 PM CDT
Nautical Twilight 5:48 AM CDT 8:08 PM CDT
Astronomical Twilight 5:12 AM CDT 8:43 PM CDT
Moon 4:20 AM CDT (9/21) 5:45 PM CDT (9/21)
Length of Visible Light 13h 11m
Length of Day
12h 13m
Tomorrow will be 3m 5s shorter.
Waning Crescent, 4% of the Moon is Illuminated
Today
Waning Crescent
Sep 24
New
Oct 1
First Quarter
Oct 8
Full
Oct 15
Last Quarter

Today's Extremes

State Highs State Lows

Community

WunderPhotos

Upload Photos

1,755,347 photos uploaded!

WunderBlogs® & News

Nearby

Snow Depth

Station Depth Elevation
No new snow has been reported.

Earthquake Activity

City Distance Mag. Time & Date
No recent earthquake activity has been reported nearby.
Minimum magnitude displayed is 2.5.

Coastal Water Temperatures

Place Temperature
No Stations Reporting

Nearby Weather Stations